sensor_id;sensor_type;location;lat;lon;timestamp;pressure;altitude;pressure_sealevel;temperature;humidity
70815;BME280;58428;49.478;10.986;2023-08-24T00:00:13;98649.84;;;20.44;100.00
70815;BME280;58428;49.478;10.986;2023-08-24T00:02:39;98653.00;;;20.46;100.00
70815;BME280;58428;49.478;10.986;2023-08-24T00:05:05;98649.09;;;20.47;100.00
70815;BME280;58428;49.478;10.986;2023-08-24T00:07:31;98648.63;;;20.38;100.00
70815;BME280;58428;49.478;10.986;2023-08-24T00:09:58;98649.75;;;20.30;100.00
70815;BME280;58428;49.478;10.986;2023-08-24T00:12:23;98645.78;;;20.24;100.00
70815;BME280;58428;49.478;10.986;2023-08-24T00:14:51;98648.94;;;20.26;100.00
70815;BME280;58428;49.478;10.986;2023-08-24T00:17:18;98649.75;;;20.27;100.00
70815;BME280;58428;49.478;10.986;2023-08-24T00:19:44;98653.19;;;20.17;100.00
70815;BME280;58428;49.478;10.986;2023-08-24T00:22:11;98643.78;;;20.14;100.00
70815;BME280;58428;49.478;10.986;2023-08-24T00:24:36;98644.56;;;20.15;100.00
70815;BME280;58428;49.478;10.986;2023-08-24T00:27:02;98637.47;;;20.10;100.00
70815;BME280;58428;49.478;10.986;2023-08-24T00:29:27;98649.22;;;20.07;100.00
70815;BME280;58428;49.478;10.986;2023-08-24T00:31:53;98632.72;;;20.04;100.00
70815;BME280;58428;49.478;10.986;2023-08-24T00:34:18;98642.53;;;20.05;100.00
70815;BME280;58428;49.478;10.986;2023-08-24T00:36:44;98641.00;;;20.11;100.00
70815;BME280;58428;49.478;10.986;2023-08-24T00:39:09;98635.09;;;20.05;100.00
70815;BME280;58428;49.478;10.986;2023-08-24T00:41:35;98640.94;;;20.00;100.00
70815;BME280;58428;49.478;10.986;2023-08-24T00:44:01;98635.81;;;19.99;100.00
70815;BME280;58428;49.478;10.986;2023-08-24T00:46:32;98629.09;;;19.93;100.00
70815;BME280;58428;49.478;10.986;2023-08-24T00:48:58;98632.63;;;19.90;100.00
70815;BME280;58428;49.478;10.986;2023-08-24T00:51:25;98621.94;;;19.82;100.00
70815;BME280;58428;49.478;10.986;2023-08-24T00:53:52;98625.75;;;19.74;100.00
70815;BME280;58428;49.478;10.986;2023-08-24T00:56:18;98619.09;;;19.71;100.00
70815;BME280;58428;49.478;10.986;2023-08-24T00:58:50;98630.06;;;19.71;100.00
70815;BME280;58428;49.478;10.986;2023-08-24T01:01:20;98622.19;;;19.70;100.00
70815;BME280;58428;49.478;10.986;2023-08-24T01:03:48;98621.00;;;19.67;100.00
70815;BME280;58428;49.478;10.986;2023-08-24T01:06:13;98622.19;;;19.70;100.00
70815;BME280;58428;49.478;10.986;2023-08-24T01:08:39;98616.38;;;19.75;100.00
70815;BME280;58428;49.478;10.986;2023-08-24T01:11:27;98617.91;;;19.69;100.00
70815;BME280;58428;49.478;10.986;2023-08-24T01:14:11;98620.19;;;19.63;100.00
70815;BME280;58428;49.478;10.986;2023-08-24T01:16:45;98622.13;;;19.59;100.00
70815;BME280;58428;49.478;10.986;2023-08-24T01:19:29;98618.59;;;19.59;100.00
70815;BME280;58428;49.478;10.986;2023-08-24T01:22:01;98611.94;;;19.60;100.00
70815;BME280;58428;49.478;10.986;2023-08-24T01:24:38;98626.44;;;19.57;100.00
70815;BME280;58428;49.478;10.986;2023-08-24T01:27:05;98618.88;;;19.47;100.00
70815;BME280;58428;49.478;10.986;2023-08-24T01:29:30;98626.25;;;19.40;100.00
70815;BME280;58428;49.478;10.986;2023-08-24T01:31:56;98622.69;;;19.36;100.00
70815;BME280;58428;49.478;10.986;2023-08-24T01:34:21;98619.47;;;19.27;100.00
70815;BME280;58428;49.478;10.986;2023-08-24T01:36:48;98619.47;;;19.27;100.00
70815;BME280;58428;49.478;10.986;2023-08-24T01:39:37;98615.47;;;19.21;100.00
70815;BME280;58428;49.478;10.986;2023-08-24T01:42:10;98615.06;;;19.19;100.00
70815;BME280;58428;49.478;10.986;2023-08-24T01:44:40;98622.19;;;19.27;100.00
70815;BME280;58428;49.478;10.986;2023-08-24T01:47:10;98621.28;;;19.16;100.00
70815;BME280;58428;49.478;10.986;2023-08-24T01:49:37;98617.72;;;19.09;100.00
70815;BME280;58428;49.478;10.986;2023-08-24T01:52:04;98623.59;;;19.11;100.00
70815;BME280;58428;49.478;10.986;2023-08-24T01:54:30;98614.28;;;19.18;100.00
70815;BME280;58428;49.478;10.986;2023-08-24T01:56:56;98618.91;;;19.11;100.00
70815;BME280;58428;49.478;10.986;2023-08-24T01:59:22;98619.16;;;18.99;100.00
70815;BME280;58428;49.478;10.986;2023-08-24T02:01:48;98622.97;;;18.91;100.00
70815;BME280;58428;49.478;10.986;2023-08-24T02:04:13;98616.31;;;18.92;100.00
70815;BME280;58428;49.478;10.986;2023-08-24T02:06:38;98625.38;;;18.96;100.00
70815;BME280;58428;49.478;10.986;2023-08-24T02:09:04;98614.69;;;18.88;100.00
70815;BME280;58428;49.478;10.986;2023-08-24T02:11:29;98611.59;;;18.93;100.00
70815;BME280;58428;49.478;10.986;2023-08-24T02:13:55;98613.50;;;18.89;100.00
70815;BME280;58428;49.478;10.986;2023-08-24T02:16:20;98613.09;;;18.87;100.00
70815;BME280;58428;49.478;10.986;2023-08-24T02:18:47;98612.28;;;18.83;100.00
70815;BME280;58428;49.478;10.986;2023-08-24T02:21:12;98612.66;;;18.81;100.00
70815;BME280;58428;49.478;10.986;2023-08-24T02:23:39;98616.91;;;18.76;100.00
70815;BME280;58428;49.478;10.986;2023-08-24T02:26:05;98607.44;;;18.70;100.00
70815;BME280;58428;49.478;10.986;2023-08-24T02:28:30;98612.06;;;18.66;100.00
70815;BME280;58428;49.478;10.986;2023-08-24T02:30:59;98617.53;;;18.62;100.00
70815;BME280;58428;49.478;10.986;2023-08-24T02:33:25;98629.56;;;18.54;100.00
70815;BME280;58428;49.478;10.986;2023-08-24T02:35:50;98626.84;;;18.58;100.00
70815;BME280;58428;49.478;10.986;2023-08-24T02:38:16;98629.56;;;18.58;100.00
70815;BME280;58428;49.478;10.986;2023-08-24T02:40:41;98621.09;;;18.66;100.00
70815;BME280;58428;49.478;10.986;2023-08-24T02:43:08;98618.41;;;18.70;100.00
70815;BME280;58428;49.478;10.986;2023-08-24T02:45:33;98621.91;;;18.70;100.00
70815;BME280;58428;49.478;10.986;2023-08-24T02:47:59;98623.03;;;18.66;100.00
70815;BME280;58428;49.478;10.986;2023-08-24T02:50:25;98622.59;;;18.64;100.00
70815;BME280;58428;49.478;10.986;2023-08-24T02:52:51;98620.28;;;18.66;100.00
70815;BME280;58428;49.478;10.986;2023-08-24T02:55:17;98622.19;;;18.62;100.00
70815;BME280;58428;49.478;10.986;2023-08-24T02:57:43;98633.44;;;18.53;100.00
70815;BME280;58428;49.478;10.986;2023-08-24T03:00:08;98636.88;;;18.47;100.00
70815;BME280;58428;49.478;10.986;2023-08-24T03:02:35;98635.94;;;18.36;100.00
70815;BME280;58428;49.478;10.986;2023-08-24T03:05:02;98632.84;;;18.38;100.00
70815;BME280;58428;49.478;10.986;2023-08-24T03:07:28;98639.03;;;18.35;100.00
70815;BME280;58428;49.478;10.986;2023-08-24T03:09:54;98644.91;;;18.33;100.00
70815;BME280;58428;49.478;10.986;2023-08-24T03:12:20;98650.66;;;18.25;100.00
70815;BME280;58428;49.478;10.986;2023-08-24T03:14:47;98652.94;;;18.19;100.00
70815;BME280;58428;49.478;10.986;2023-08-24T03:17:16;98649.44;;;18.22;100.00
70815;BME280;58428;49.478;10.986;2023-08-24T03:19:41;98656.13;;;18.25;100.00
70815;BME280;58428;49.478;10.986;2023-08-24T03:22:06;98644.03;;;18.26;100.00
70815;BME280;58428;49.478;10.986;2023-08-24T03:24:31;98646.41;;;18.27;100.00
70815;BME280;58428;49.478;10.986;2023-08-24T03:26:57;98652.28;;;18.29;100.00
70815;BME280;58428;49.478;10.986;2023-08-24T03:29:22;98645.16;;;18.25;100.00
70815;BME280;58428;49.478;10.986;2023-08-24T03:31:47;98641.22;;;18.22;100.00
70815;BME280;58428;49.478;10.986;2023-08-24T03:34:12;98651.81;;;18.24;100.00
70815;BME280;58428;49.478;10.986;2023-08-24T03:36:38;98650.56;;;18.18;100.00
70815;BME280;58428;49.478;10.986;2023-08-24T03:39:03;98649.28;;;18.12;100.00
70815;BME280;58428;49.478;10.986;2023-08-24T03:41:29;98662.94;;;18.08;100.00
70815;BME280;58428;49.478;10.986;2023-08-24T03:43:54;98648.06;;;18.09;100.00
70815;BME280;58428;49.478;10.986;2023-08-24T03:46:19;98642.09;;;18.04;100.00
70815;BME280;58428;49.478;10.986;2023-08-24T03:48:45;98641.81;;;18.09;100.00
70815;BME280;58428;49.478;10.986;2023-08-24T03:51:11;98636.63;;;18.04;100.00
70815;BME280;58428;49.478;10.986;2023-08-24T03:53:38;98629.06;;;17.98;100.00
70815;BME280;58428;49.478;10.986;2023-08-24T03:56:04;98628.03;;;18.05;100.00
70815;BME280;58428;49.478;10.986;2023-08-24T03:58:29;98619.97;;;18.12;100.00
70815;BME280;58428;49.478;10.986;2023-08-24T04:00:54;98619.19;;;18.15;100.00
70815;BME280;58428;49.478;10.986;2023-08-24T04:03:20;98621.28;;;18.22;100.00
70815;BME280;58428;49.478;10.986;2023-08-24T04:05:48;98611.47;;;18.21;100.00
70815;BME280;58428;49.478;10.986;2023-08-24T04:08:14;98613.34;;;18.17;100.00
70815;BME280;58428;49.478;10.986;2023-08-24T04:10:40;98607.56;;;18.22;100.00
70815;BME280;58428;49.478;10.986;2023-08-24T04:13:07;98604.91;;;18.25;100.00
70815;BME280;58428;49.478;10.986;2023-08-24T04:15:32;98607.63;;;18.25;100.00
70815;BME280;58428;49.478;10.986;2023-08-24T04:17:59;98606.41;;;18.23;100.00
70815;BME280;58428;49.478;10.986;2023-08-24T04:20:24;98618.91;;;18.20;100.00
70815;BME280;58428;49.478;10.986;2023-08-24T04:22:49;98609.13;;;18.19;100.00
70815;BME280;58428;49.478;10.986;2023-08-24T04:25:15;98625.53;;;18.19;100.00
70815;BME280;58428;49.478;10.986;2023-08-24T04:27:41;98630.34;;;18.04;100.00
70815;BME280;58428;49.478;10.986;2023-08-24T04:30:06;98626.41;;;18.27;100.00
70815;BME280;58428;49.478;10.986;2023-08-24T04:32:36;98626.59;;;18.41;100.00
70815;BME280;58428;49.478;10.986;2023-08-24T04:35:02;98631.03;;;18.19;100.00
70815;BME280;58428;49.478;10.986;2023-08-24T04:37:30;98625.41;;;18.38;100.00
70815;BME280;58428;49.478;10.986;2023-08-24T04:39:55;98619.31;;;18.51;100.00
70815;BME280;58428;49.478;10.986;2023-08-24T04:42:22;98614.09;;;18.40;100.00
70815;BME280;58428;49.478;10.986;2023-08-24T04:44:48;98619.38;;;18.26;100.00
70815;BME280;58428;49.478;10.986;2023-08-24T04:47:13;98627.84;;;18.17;100.00
70815;BME280;58428;49.478;10.986;2023-08-24T04:49:38;98634.31;;;18.06;100.00
70815;BME280;58428;49.478;10.986;2023-08-24T04:52:04;98630.72;;;18.02;100.00
70815;BME280;58428;49.478;10.986;2023-08-24T04:54:30;98634.56;;;17.98;100.00
70815;BME280;58428;49.478;10.986;2023-08-24T04:56:55;98630.19;;;17.93;100.00
70815;BME280;58428;49.478;10.986;2023-08-24T04:59:20;98636.03;;;17.92;100.00
70815;BME280;58428;49.478;10.986;2023-08-24T05:01:46;98643.88;;;17.93;100.00
70815;BME280;58428;49.478;10.986;2023-08-24T05:04:11;98629.03;;;17.94;100.00
70815;BME280;58428;49.478;10.986;2023-08-24T05:06:36;98625.13;;;17.95;100.00
70815;BME280;58428;49.478;10.986;2023-08-24T05:09:02;98626.47;;;18.05;100.00
70815;BME280;58428;49.478;10.986;2023-08-24T05:11:27;98622.34;;;18.17;100.00
70815;BME280;58428;49.478;10.986;2023-08-24T05:13:56;98615.78;;;18.22;100.00
70815;BME280;58428;49.478;10.986;2023-08-24T05:16:21;98617.09;;;18.31;100.00
70815;BME280;58428;49.478;10.986;2023-08-24T05:18:47;98616.88;;;18.43;100.00
70815;BME280;58428;49.478;10.986;2023-08-24T05:21:12;98618.34;;;18.37;100.00
70815;BME280;58428;49.478;10.986;2023-08-24T05:23:38;98618.53;;;18.51;100.00
70815;BME280;58428;49.478;10.986;2023-08-24T05:26:03;98617.06;;;18.57;100.00
70815;BME280;58428;49.478;10.986;2023-08-24T05:28:29;98623.38;;;18.61;100.00
70815;BME280;58428;49.478;10.986;2023-08-24T05:30:57;98627.94;;;18.82;100.00
70815;BME280;58428;49.478;10.986;2023-08-24T05:33:25;98615.94;;;18.94;100.00
70815;BME280;58428;49.478;10.986;2023-08-24T05:35:52;98618.84;;;19.08;100.00
70815;BME280;58428;49.478;10.986;2023-08-24T05:38:20;98613.91;;;19.20;100.00
70815;BME280;58428;49.478;10.986;2023-08-24T05:40:49;98617.53;;;19.31;100.00
70815;BME280;58428;49.478;10.986;2023-08-24T05:43:16;98607.06;;;19.43;100.00
70815;BME280;58428;49.478;10.986;2023-08-24T05:45:41;98606.81;;;19.58;100.00
70815;BME280;58428;49.478;10.986;2023-08-24T05:48:11;98610.09;;;19.74;100.00
70815;BME280;58428;49.478;10.986;2023-08-24T05:50:47;98607.47;;;19.85;100.00
70815;BME280;58428;49.478;10.986;2023-08-24T05:53:13;98616.00;;;19.80;100.00
70815;BME280;58428;49.478;10.986;2023-08-24T05:55:38;98623.44;;;19.72;100.00
70815;BME280;58428;49.478;10.986;2023-08-24T05:58:04;98614.09;;;19.84;100.00
70815;BME280;58428;49.478;10.986;2023-08-24T06:00:31;98609.94;;;20.00;100.00
70815;BME280;58428;49.478;10.986;2023-08-24T06:02:56;98606.81;;;20.05;100.00
70815;BME280;58428;49.478;10.986;2023-08-24T06:05:21;98598.22;;;20.10;100.00
70815;BME280;58428;49.478;10.986;2023-08-24T06:07:49;98580.97;;;20.09;100.00
70815;BME280;58428;49.478;10.986;2023-08-24T06:10:14;98558.69;;;20.25;100.00
70815;BME280;58428;49.478;10.986;2023-08-24T06:12:41;98544.22;;;20.41;100.00
70815;BME280;58428;49.478;10.986;2023-08-24T06:15:08;98536.81;;;20.52;100.00
70815;BME280;58428;49.478;10.986;2023-08-24T06:17:38;98517.19;;;20.61;100.00
70815;BME280;58428;49.478;10.986;2023-08-24T06:20:04;98498.78;;;20.65;100.00
70815;BME280;58428;49.478;10.986;2023-08-24T06:22:30;98500.38;;;20.66;100.00
70815;BME280;58428;49.478;10.986;2023-08-24T06:24:55;98506.19;;;20.61;100.00
70815;BME280;58428;49.478;10.986;2023-08-24T06:27:25;98519.91;;;20.57;100.00
70815;BME280;58428;49.478;10.986;2023-08-24T06:29:52;98533.66;;;20.50;100.00
70815;BME280;58428;49.478;10.986;2023-08-24T06:32:18;98530.88;;;20.47;100.00
70815;BME280;58428;49.478;10.986;2023-08-24T06:34:43;98528.16;;;20.57;100.00
70815;BME280;58428;49.478;10.986;2023-08-24T06:37:09;98516.84;;;20.72;100.00
70815;BME280;58428;49.478;10.986;2023-08-24T06:39:36;98509.44;;;20.83;100.00
70815;BME280;58428;49.478;10.986;2023-08-24T06:42:01;98507.06;;;20.92;100.00
70815;BME280;58428;49.478;10.986;2023-08-24T06:44:28;98507.13;;;21.06;100.00
70815;BME280;58428;49.478;10.986;2023-08-24T06:46:53;98506.72;;;21.25;100.00
70815;BME280;58428;49.478;10.986;2023-08-24T06:49:18;98509.91;;;21.44;100.00
70815;BME280;58428;49.478;10.986;2023-08-24T06:51:45;98510.28;;;21.70;100.00
70815;BME280;58428;49.478;10.986;2023-08-24T06:54:10;98516.94;;;21.93;100.00
70815;BME280;58428;49.478;10.986;2023-08-24T06:56:36;98514.53;;;22.13;100.00
70815;BME280;58428;49.478;10.986;2023-08-24T06:59:01;98525.16;;;22.14;100.00
70815;BME280;58428;49.478;10.986;2023-08-24T07:01:29;98527.13;;;22.10;100.00
70815;BME280;58428;49.478;10.986;2023-08-24T07:03:56;98531.88;;;21.99;100.00
70815;BME280;58428;49.478;10.986;2023-08-24T07:06:22;98532.22;;;22.08;100.00
70815;BME280;58428;49.478;10.986;2023-08-24T07:08:47;98533.44;;;22.17;100.00
70815;BME280;58428;49.478;10.986;2023-08-24T07:11:13;98531.06;;;22.26;100.00
70815;BME280;58428;49.478;10.986;2023-08-24T07:13:40;98538.50;;;22.36;100.00
70815;BME280;58428;49.478;10.986;2023-08-24T07:16:06;98545.59;;;22.34;100.00
70815;BME280;58428;49.478;10.986;2023-08-24T07:18:32;98549.53;;;22.29;100.00
70815;BME280;58428;49.478;10.986;2023-08-24T07:20:58;98556.63;;;22.34;100.00
70815;BME280;58428;49.478;10.986;2023-08-24T07:23:24;98555.81;;;22.37;100.00
70815;BME280;58428;49.478;10.986;2023-08-24T07:25:49;98568.00;;;22.43;100.00
70815;BME280;58428;49.478;10.986;2023-08-24T07:28:15;98588.81;;;22.64;100.00
70815;BME280;58428;49.478;10.986;2023-08-24T07:30:40;98589.94;;;22.84;100.00
70815;BME280;58428;49.478;10.986;2023-08-24T07:33:08;98596.25;;;22.78;100.00
70815;BME280;58428;49.478;10.986;2023-08-24T07:35:34;98597.56;;;22.49;100.00
70815;BME280;58428;49.478;10.986;2023-08-24T07:38:00;98590.84;;;22.50;100.00
70815;BME280;58428;49.478;10.986;2023-08-24T07:40:26;98586.81;;;22.68;100.00
70815;BME280;58428;49.478;10.986;2023-08-24T07:42:52;98585.22;;;22.88;100.00
70815;BME280;58428;49.478;10.986;2023-08-24T07:45:20;98581.94;;;23.07;100.00
70815;BME280;58428;49.478;10.986;2023-08-24T07:47:46;98581.06;;;23.20;100.00
70815;BME280;58428;49.478;10.986;2023-08-24T07:50:13;98586.13;;;23.32;100.00
70815;BME280;58428;49.478;10.986;2023-08-24T07:52:39;98593.22;;;23.33;100.00
70815;BME280;58428;49.478;10.986;2023-08-24T07:55:05;98586.94;;;23.26;100.00
70815;BME280;58428;49.478;10.986;2023-08-24T07:57:35;98582.91;;;23.40;100.00
70815;BME280;58428;49.478;10.986;2023-08-24T08:00:02;98585.63;;;23.47;100.00
70815;BME280;58428;49.478;10.986;2023-08-24T08:02:27;98589.13;;;23.58;100.00
70815;BME280;58428;49.478;10.986;2023-08-24T08:04:59;98583.88;;;23.70;100.00
70815;BME280;58428;49.478;10.986;2023-08-24T08:07:26;98587.41;;;23.74;100.00
70815;BME280;58428;49.478;10.986;2023-08-24T08:09:53;98592.09;;;23.81;100.00
70815;BME280;58428;49.478;10.986;2023-08-24T08:12:18;98588.50;;;23.84;100.00
70815;BME280;58428;49.478;10.986;2023-08-24T08:14:44;98580.97;;;23.88;100.00
70815;BME280;58428;49.478;10.986;2023-08-24T08:17:09;98578.31;;;23.77;100.00
70815;BME280;58428;49.478;10.986;2023-08-24T08:19:35;98584.13;;;23.86;100.00
70815;BME280;58428;49.478;10.986;2023-08-24T08:22:03;98580.09;;;23.98;100.00
70815;BME280;58428;49.478;10.986;2023-08-24T08:24:28;98573.66;;;24.07;100.00
70815;BME280;58428;49.478;10.986;2023-08-24T08:26:54;98574.03;;;24.09;100.00
70815;BME280;58428;49.478;10.986;2023-08-24T08:29:19;98562.84;;;24.23;100.00
70815;BME280;58428;49.478;10.986;2023-08-24T08:31:44;98554.44;;;24.37;100.00
70815;BME280;58428;49.478;10.986;2023-08-24T08:34:10;98549.97;;;24.46;100.00
70815;BME280;58428;49.478;10.986;2023-08-24T08:36:37;98546.69;;;24.58;100.00
70815;BME280;58428;49.478;10.986;2023-08-24T08:39:03;98550.97;;;24.63;100.00
70815;BME280;58428;49.478;10.986;2023-08-24T08:41:32;98554.38;;;24.74;100.00
70815;BME280;58428;49.478;10.986;2023-08-24T08:44:04;98543.91;;;24.88;100.00
70815;BME280;58428;49.478;10.986;2023-08-24T08:46:32;98543.00;;;24.98;100.00
70815;BME280;58428;49.478;10.986;2023-08-24T08:49:01;98547.41;;;24.95;100.00
70815;BME280;58428;49.478;10.986;2023-08-24T08:51:28;98535.03;;;25.03;100.00
70815;BME280;58428;49.478;10.986;2023-08-24T08:53:54;98534.38;;;24.89;100.00
70815;BME280;58428;49.478;10.986;2023-08-24T08:56:20;98536.22;;;25.02;100.00
70815;BME280;58428;49.478;10.986;2023-08-24T08:58:47;98527.28;;;25.17;100.00
70815;BME280;58428;49.478;10.986;2023-08-24T09:01:13;98527.44;;;25.33;100.00
70815;BME280;58428;49.478;10.986;2023-08-24T09:03:39;98518.16;;;25.43;100.00
70815;BME280;58428;49.478;10.986;2023-08-24T09:06:06;98512.38;;;25.60;100.00
70815;BME280;58428;49.478;10.986;2023-08-24T09:08:31;98508.94;;;25.76;100.00
70815;BME280;58428;49.478;10.986;2023-08-24T09:10:58;98501.06;;;26.16;100.00
70815;BME280;58428;49.478;10.986;2023-08-24T09:13:24;98501.56;;;26.69;100.00
70815;BME280;58428;49.478;10.986;2023-08-24T09:15:51;98482.78;;;27.11;100.00
70815;BME280;58428;49.478;10.986;2023-08-24T09:18:19;98457.63;;;27.34;100.00
70815;BME280;58428;49.478;10.986;2023-08-24T09:20:46;98453.63;;;27.35;100.00
70815;BME280;58428;49.478;10.986;2023-08-24T09:23:18;98449.56;;;27.24;100.00
70815;BME280;58428;49.478;10.986;2023-08-24T09:25:46;98466.72;;;27.03;100.00
70815;BME280;58428;49.478;10.986;2023-08-24T09:28:13;98464.75;;;26.84;100.00
70815;BME280;58428;49.478;10.986;2023-08-24T09:30:39;98466.75;;;26.84;100.00
70815;BME280;58428;49.478;10.986;2023-08-24T09:33:10;98466.97;;;26.73;100.00
70815;BME280;58428;49.478;10.986;2023-08-24T09:35:36;98480.59;;;26.49;100.00
70815;BME280;58428;49.478;10.986;2023-08-24T09:38:23;98481.44;;;26.27;100.00
70815;BME280;58428;49.478;10.986;2023-08-24T09:40:53;98479.59;;;26.39;100.00
70815;BME280;58428;49.478;10.986;2023-08-24T09:43:19;98471.50;;;26.48;100.00
70815;BME280;58428;49.478;10.986;2023-08-24T09:45:57;98470.69;;;26.48;100.00
70815;BME280;58428;49.478;10.986;2023-08-24T09:48:23;98477.53;;;26.63;100.00
70815;BME280;58428;49.478;10.986;2023-08-24T09:50:52;98465.81;;;26.71;100.00
70815;BME280;58428;49.478;10.986;2023-08-24T09:53:22;98459.31;;;26.81;100.00
70815;BME280;58428;49.478;10.986;2023-08-24T09:56:01;98458.19;;;26.94;100.00
70815;BME280;58428;49.478;10.986;2023-08-24T09:58:28;98449.28;;;27.02;100.00
70815;BME280;58428;49.478;10.986;2023-08-24T10:00:54;98439.91;;;27.12;100.00
70815;BME280;58428;49.478;10.986;2023-08-24T10:03:24;98443.53;;;27.25;100.00
70815;BME280;58428;49.478;10.986;2023-08-24T10:05:56;98442.34;;;27.42;100.00
70815;BME280;58428;49.478;10.986;2023-08-24T10:08:27;98428.78;;;27.60;100.00
70815;BME280;58428;49.478;10.986;2023-08-24T10:10:56;98420.44;;;27.60;100.00
70815;BME280;58428;49.478;10.986;2023-08-24T10:13:44;98423.47;;;27.65;100.00
70815;BME280;58428;49.478;10.986;2023-08-24T10:16:12;98411.50;;;27.68;100.00
70815;BME280;58428;49.478;10.986;2023-08-24T10:18:40;98413.47;;;27.83;100.00
70815;BME280;58428;49.478;10.986;2023-08-24T10:21:07;98407.78;;;27.87;100.00
70815;BME280;58428;49.478;10.986;2023-08-24T10:23:34;98406.13;;;27.89;100.00
70815;BME280;58428;49.478;10.986;2023-08-24T10:26:02;98397.16;;;27.98;100.00
70815;BME280;58428;49.478;10.986;2023-08-24T10:28:28;98397.22;;;28.10;100.00
70815;BME280;58428;49.478;10.986;2023-08-24T10:30:57;98392.44;;;28.11;100.00
70815;BME280;58428;49.478;10.986;2023-08-24T10:33:24;98382.44;;;28.13;100.00
70815;BME280;58428;49.478;10.986;2023-08-24T10:35:53;98382.19;;;28.20;100.00
70815;BME280;58428;49.478;10.986;2023-08-24T10:38:26;98387.56;;;28.27;100.00
70815;BME280;58428;49.478;10.986;2023-08-24T10:40:53;98383.34;;;28.22;100.00
70815;BME280;58428;49.478;10.986;2023-08-24T10:43:21;98382.69;;;28.31;100.00
70815;BME280;58428;49.478;10.986;2023-08-24T10:46:01;98390.69;;;28.29;100.00
70815;BME280;58428;49.478;10.986;2023-08-24T10:53:56;98372.78;;;28.42;100.00
70815;BME280;58428;49.478;10.986;2023-08-24T10:56:38;98366.31;;;28.45;100.00
70815;BME280;58428;49.478;10.986;2023-08-24T10:59:15;98364.88;;;28.53;100.00
70815;BME280;58428;49.478;10.986;2023-08-24T11:01:56;98353.56;;;28.60;100.00
70815;BME280;58428;49.478;10.986;2023-08-24T11:04:21;98356.13;;;28.67;100.00
70815;BME280;58428;49.478;10.986;2023-08-24T11:06:58;98346.97;;;28.66;100.00
70815;BME280;58428;49.478;10.986;2023-08-24T11:09:47;98341.97;;;28.74;100.00
70815;BME280;58428;49.478;10.986;2023-08-24T11:12:15;98347.56;;;28.86;100.00
70815;BME280;58428;49.478;10.986;2023-08-24T11:14:49;98345.63;;;28.95;100.00
70815;BME280;58428;49.478;10.986;2023-08-24T11:17:22;98331.91;;;29.13;100.00
70815;BME280;58428;49.478;10.986;2023-08-24T11:19:52;98326.78;;;29.12;100.00
70815;BME280;58428;49.478;10.986;2023-08-24T11:22:21;98321.53;;;29.14;100.00
70815;BME280;58428;49.478;10.986;2023-08-24T11:24:47;98314.47;;;29.34;100.00
70815;BME280;58428;49.478;10.986;2023-08-24T11:27:13;98316.91;;;29.44;100.00
70815;BME280;58428;49.478;10.986;2023-08-24T11:29:38;98312.94;;;29.54;100.00
70815;BME280;58428;49.478;10.986;2023-08-24T11:32:04;98318.59;;;29.63;100.00
70815;BME280;58428;49.478;10.986;2023-08-24T11:34:30;98315.94;;;29.60;100.00
70815;BME280;58428;49.478;10.986;2023-08-24T11:36:56;98308.25;;;29.51;100.00
70815;BME280;58428;49.478;10.986;2023-08-24T11:39:22;98317.81;;;29.63;100.00
70815;BME280;58428;49.478;10.986;2023-08-24T11:42:05;98305.16;;;29.83;100.00
70815;BME280;58428;49.478;10.986;2023-08-24T11:44:47;98300.53;;;29.89;100.00
70815;BME280;58428;49.478;10.986;2023-08-24T11:47:13;98299.16;;;29.93;100.00
70815;BME280;58428;49.478;10.986;2023-08-24T11:49:39;98289.47;;;30.06;100.00
70815;BME280;58428;49.478;10.986;2023-08-24T11:52:05;98300.09;;;30.20;100.00
70815;BME280;58428;49.478;10.986;2023-08-24T11:54:33;98291.72;;;30.20;100.00
70815;BME280;58428;49.478;10.986;2023-08-24T11:56:59;98283.28;;;30.11;100.00
70815;BME280;58428;49.478;10.986;2023-08-24T11:59:25;98282.53;;;30.11;100.00
70815;BME280;58428;49.478;10.986;2023-08-24T12:01:52;98275.41;;;30.10;100.00
70815;BME280;58428;49.478;10.986;2023-08-24T12:04:18;98279.47;;;30.18;100.00
70815;BME280;58428;49.478;10.986;2023-08-24T12:06:44;98264.44;;;30.24;100.00
70815;BME280;58428;49.478;10.986;2023-08-24T12:09:09;98263.84;;;30.29;100.00
70815;BME280;58428;49.478;10.986;2023-08-24T12:11:36;98265.19;;;30.46;100.00
70815;BME280;58428;49.478;10.986;2023-08-24T12:14:01;98258.69;;;30.49;100.00
70815;BME280;58428;49.478;10.986;2023-08-24T12:16:30;98261.84;;;30.77;100.00
70815;BME280;58428;49.478;10.986;2023-08-24T12:19:00;98243.28;;;30.92;100.00
70815;BME280;58428;49.478;10.986;2023-08-24T12:21:28;98240.03;;;31.03;100.00
70815;BME280;58428;49.478;10.986;2023-08-24T12:26:20;98236.81;;;31.57;100.00
70815;BME280;58428;49.478;10.986;2023-08-24T12:28:52;98229.16;;;31.76;99.57
70815;BME280;58428;49.478;10.986;2023-08-24T12:31:26;98219.34;;;31.80;93.94
70815;BME280;58428;49.478;10.986;2023-08-24T12:34:06;98212.50;;;31.99;92.60
70815;BME280;58428;49.478;10.986;2023-08-24T12:36:36;98205.75;;;32.14;95.86
70815;BME280;58428;49.478;10.986;2023-08-24T12:39:04;98197.94;;;32.27;95.08
70815;BME280;58428;49.478;10.986;2023-08-24T12:41:31;98210.19;;;32.38;92.22
70815;BME280;58428;49.478;10.986;2023-08-24T12:43:58;98207.22;;;32.33;89.52
70815;BME280;58428;49.478;10.986;2023-08-24T12:46:24;98194.91;;;32.48;86.23
70815;BME280;58428;49.478;10.986;2023-08-24T12:48:51;98195.25;;;32.65;86.66